Time;durP1;ratioP1;P1;durP2;ratioP2;P2;SDS_P1;SDS_P2;PMS_P1;PMS_P2;Temp;Humidity;BMP_temperature;BMP_pressure;BME280_temperature;BME280_humidity;BME280_pressure;Samples;Min_cycle;Max_cycle;Signal;HPM_P1;HPM_P2
2021/03/20 00:00:35;;;;;;;69.20;24.08;;;19.20;58.70;;;;;;1035358;28;20041;-54
2021/03/20 00:01:11;;;;;;;71.62;24.22;;;19.20;58.70;;;;;;1035262;28;20112;-54
2021/03/20 00:01:42;;;;;;;62.02;22.92;;;19.20;58.70;;;;;;1039489;28;20022;-54
2021/03/20 00:02:13;;;;;;;57.67;23.95;;;19.20;58.60;;;;;;1033114;28;20105;-53
2021/03/20 00:02:44;;;;;;;57.10;23.33;;;19.20;58.60;;;;;;1031269;28;20014;-54
2021/03/20 00:03:14;;;;;;;65.65;23.73;;;19.20;58.50;;;;;;1033172;28;20029;-54
2021/03/20 00:03:45;;;;;;;60.92;24.73;;;19.20;58.50;;;;;;1037939;28;20116;-53
2021/03/20 00:04:16;;;;;;;58.15;23.05;;;19.20;58.60;;;;;;1039376;28;20072;-54
2021/03/20 00:04:47;;;;;;;65.08;24.58;;;19.20;58.50;;;;;;1039682;28;20022;-54
2021/03/20 00:05:18;;;;;;;65.30;23.77;;;19.20;59.20;;;;;;1031350;28;20149;-53
2021/03/20 00:05:49;;;;;;;60.00;23.42;;;19.10;58.50;;;;;;1027234;28;20114;-54
2021/03/20 00:06:25;;;;;;;57.75;22.63;;;19.20;58.50;;;;;;1033967;28;20043;-53
2021/03/20 00:06:55;;;;;;;63.66;23.64;;;19.10;58.50;;;;;;1028396;28;20496;-54
2021/03/20 00:07:26;;;;;;;59.92;23.90;;;19.10;58.50;;;;;;1034769;28;20015;-53
2021/03/20 00:07:57;;;;;;;61.88;22.85;;;19.10;58.50;;;;;;1035015;28;20080;-54
2021/03/20 00:08:27;;;;;;;53.03;22.27;;;19.10;58.50;;;;;;1032453;28;20093;-54
2021/03/20 00:08:58;;;;;;;57.97;22.70;;;19.10;58.50;;;;;;1033062;28;20067;-55
2021/03/20 00:09:30;;;;;;;67.07;24.40;;;19.10;58.50;;;;;;1031370;28;20463;-54
2021/03/20 00:10:01;;;;;;;55.46;22.48;;;19.10;58.50;;;;;;1037975;28;20072;-55
2021/03/20 00:10:31;;;;;;;51.40;21.05;;;19.10;58.50;;;;;;1031189;28;20467;-53
2021/03/20 00:11:02;;;;;;;61.03;23.65;;;19.10;58.50;;;;;;1033873;28;20244;-55
2021/03/20 00:11:33;;;;;;;57.08;22.58;;;19.10;58.40;;;;;;1039884;28;20025;-55
2021/03/20 00:12:04;;;;;;;49.47;21.67;;;19.10;58.40;;;;;;1039424;28;20290;-54
2021/03/20 00:12:35;;;;;;;56.66;23.22;;;19.10;59.00;;;;;;1031122;28;20015;-55
2021/03/20 00:13:06;;;;;;;50.70;22.58;;;19.10;58.40;;;;;;1027593;28;20446;-53
2021/03/20 00:13:37;;;;;;;54.15;22.60;;;19.10;58.40;;;;;;1032583;28;20029;-53
2021/03/20 00:14:07;;;;;;;53.92;21.55;;;19.10;58.40;;;;;;1039203;28;20028;-53
2021/03/20 00:14:38;;;;;;;50.83;21.50;;;19.10;58.40;;;;;;1039382;28;20014;-54
2021/03/20 00:15:10;;;;;;;51.20;21.48;;;19.10;58.40;;;;;;1043392;28;20017;-54
2021/03/20 00:15:41;;;;;;;55.48;22.48;;;19.10;58.40;;;;;;1029054;28;20022;-53
2021/03/20 00:16:12;;;;;;;47.83;21.52;;;19.10;58.40;;;;;;1035206;28;20410;-54
2021/03/20 00:16:43;;;;;;;59.53;21.17;;;19.10;58.40;;;;;;1037989;28;20101;-54
2021/03/20 00:17:13;;;;;;;57.75;21.40;;;19.10;58.40;;;;;;1031729;28;20022;-53
2021/03/20 00:17:44;;;;;;;49.72;21.00;;;19.10;58.40;;;;;;1034991;28;20006;-54
2021/03/20 00:18:15;;;;;;;56.35;22.88;;;19.10;58.40;;;;;;1033136;28;20038;-55
2021/03/20 00:18:46;;;;;;;55.65;21.40;;;19.10;58.40;;;;;;1042223;28;20037;-53
2021/03/20 00:19:16;;;;;;;52.70;21.35;;;19.10;58.40;;;;;;1042336;28;20030;-54
2021/03/20 00:19:47;;;;;;;54.80;21.25;;;19.10;58.30;;;;;;1039234;28;20029;-54
2021/03/20 00:20:23;;;;;;;56.08;21.75;;;19.00;58.30;;;;;;1038959;28;20026;-55
2021/03/20 00:20:54;;;;;;;45.04;20.32;;;19.10;58.30;;;;;;1031203;28;20555;-54
2021/03/20 00:21:25;;;;;;;56.15;21.35;;;19.10;58.30;;;;;;1033850;28;20097;-55
2021/03/20 00:21:55;;;;;;;57.55;22.15;;;19.10;58.30;;;;;;1032851;28;20113;-54
2021/03/20 00:22:26;;;;;;;52.53;20.27;;;19.10;58.40;;;;;;1031106;28;20446;-53
2021/03/20 00:22:57;;;;;;;55.17;20.73;;;19.10;58.30;;;;;;1035228;28;20022;-54
2021/03/20 00:23:28;;;;;;;54.98;21.44;;;19.10;58.30;;;;;;1032586;28;20062;-53
2021/03/20 00:23:59;;;;;;;52.92;22.77;;;19.00;58.30;;;;;;1027577;28;20012;-53
2021/03/20 00:24:29;;;;;;;48.33;21.48;;;19.00;58.20;;;;;;1027365;28;20365;-54
2021/03/20 00:25:00;;;;;;;50.95;20.00;;;19.00;58.80;;;;;;1031930;28;20010;-55
2021/03/20 00:25:31;;;;;;;58.13;21.83;;;19.00;58.20;;;;;;1039144;28;20046;-54
2021/03/20 00:26:03;;;;;;;52.28;21.04;;;19.00;58.20;;;;;;1039339;28;20036;-55
2021/03/20 00:26:33;;;;;;;51.16;20.72;;;19.00;58.20;;;;;;1039244;28;20018;-54
2021/03/20 00:27:04;;;;;;;47.92;20.20;;;19.00;58.20;;;;;;1039122;28;20470;-55
2021/03/20 00:27:35;;;;;;;52.25;21.38;;;19.00;58.20;;;;;;1035189;28;20010;-54
2021/03/20 00:28:07;;;;;;;48.75;20.63;;;19.00;58.70;;;;;;1030954;28;20050;-55
2021/03/20 00:28:38;;;;;;;49.24;20.44;;;19.00;58.20;;;;;;1029380;28;20029;-55
2021/03/20 00:29:09;;;;;;;49.45;20.98;;;19.00;58.20;;;;;;1035057;28;20540;-54
2021/03/20 00:29:39;;;;;;;55.63;20.63;;;19.00;58.20;;;;;;1031639;28;20019;-53
2021/03/20 00:30:11;;;;;;;46.75;19.85;;;19.00;58.20;;;;;;1035370;28;20022;-55
2021/03/20 00:30:41;;;;;;;45.16;21.18;;;19.00;58.20;;;;;;1039630;28;20026;-55
2021/03/20 00:31:12;;;;;;;49.10;19.88;;;19.00;58.20;;;;;;1043526;28;20029;-55
2021/03/20 00:31:43;;;;;;;42.55;19.52;;;19.00;58.20;;;;;;1033237;28;20013;-54
2021/03/20 00:32:14;;;;;;;47.63;20.33;;;19.00;58.20;;;;;;1035132;28;20013;-55
2021/03/20 00:32:45;;;;;;;42.78;20.06;;;19.00;58.20;;;;;;1039371;28;20018;-54
2021/03/20 00:33:16;;;;;;;50.60;20.98;;;19.00;58.80;;;;;;1039277;28;20014;-54
2021/03/20 00:33:47;;;;;;;49.68;19.96;;;19.00;58.70;;;;;;1037992;28;20466;-54
2021/03/20 00:34:17;;;;;;;42.38;18.67;;;19.00;58.20;;;;;;1031382;28;20040;-56
2021/03/20 00:34:48;;;;;;;45.92;19.50;;;19.00;58.20;;;;;;1039387;28;20056;-55
2021/03/20 00:35:20;;;;;;;45.53;19.27;;;19.00;58.20;;;;;;1036801;28;20017;-55
2021/03/20 00:35:50;;;;;;;42.40;19.14;;;19.00;58.20;;;;;;1035052;28;20014;-55
2021/03/20 00:36:21;;;;;;;49.95;20.83;;;19.00;58.20;;;;;;1035176;28;20023;-55
2021/03/20 00:36:52;;;;;;;45.40;19.50;;;19.00;58.20;;;;;;1035306;28;20112;-56
2021/03/20 00:37:23;;;;;;;43.85;18.83;;;19.00;58.20;;;;;;1039307;28;20045;-55
2021/03/20 00:37:53;;;;;;;46.38;18.83;;;19.00;58.20;;;;;;1031271;28;20478;-55
2021/03/20 00:38:25;;;;;;;45.70;19.50;;;19.00;58.20;;;;;;1034098;28;20089;-55
2021/03/20 00:38:56;;;;;;;44.30;19.62;;;19.00;58.20;;;;;;1038767;28;20025;-55
2021/03/20 00:39:26;;;;;;;50.92;20.30;;;18.90;58.20;;;;;;1039457;28;20060;-55
2021/03/20 00:39:57;;;;;;;42.10;19.08;;;18.90;58.10;;;;;;1027205;28;20027;-55
2021/03/20 00:40:29;;;;;;;42.92;19.35;;;18.90;58.10;;;;;;1029049;28;20019;-55
2021/03/20 00:40:59;;;;;;;41.92;19.02;;;18.90;58.10;;;;;;1039374;28;20033;-54
2021/03/20 00:41:30;;;;;;;45.03;18.33;;;19.00;58.20;;;;;;1039492;28;20413;-55
2021/03/20 00:42:01;;;;;;;44.75;18.40;;;19.00;58.20;;;;;;1039732;28;20025;-55
2021/03/20 00:42:31;;;;;;;46.53;20.33;;;19.00;58.20;;;;;;1039039;28;20024;-55
2021/03/20 00:43:02;;;;;;;51.30;19.75;;;18.90;58.10;;;;;;1031250;28;20026;-56
2021/03/20 00:43:33;;;;;;;52.70;20.20;;;18.90;58.10;;;;;;1031283;28;20018;-55
2021/03/20 00:44:04;;;;;;;41.45;18.48;;;19.00;58.20;;;;;;1031486;28;20022;-55
2021/03/20 00:44:35;;;;;;;43.97;18.58;;;18.90;58.10;;;;;;1035463;28;20498;-54
2021/03/20 00:45:07;;;;;;;42.58;18.30;;;18.90;58.10;;;;;;1035306;28;20134;-55
2021/03/20 00:45:37;;;;;;;41.46;18.96;;;18.90;58.10;;;;;;1035588;28;20029;-55
2021/03/20 00:46:09;;;;;;;46.45;18.17;;;18.90;58.10;;;;;;1035220;28;20044;-55
2021/03/20 00:46:40;;;;;;;39.54;18.50;;;18.90;58.70;;;;;;1030935;28;20122;-54
2021/03/20 00:47:10;;;;;;;42.38;19.58;;;18.90;58.10;;;;;;1031249;28;20022;-56
2021/03/20 00:47:41;;;;;;;43.35;19.42;;;18.90;58.20;;;;;;1031465;28;20058;-55
2021/03/20 00:48:14;;;;;;;38.75;19.15;;;18.90;58.20;;;;;;1031416;28;20022;-55
2021/03/20 00:48:45;;;;;;;41.50;19.14;;;18.90;58.20;;;;;;1030817;28;20019;-55
2021/03/20 00:49:16;;;;;;;43.28;18.65;;;18.90;58.20;;;;;;1031148;28;20011;-55
2021/03/20 00:49:48;;;;;;;42.52;18.56;;;18.90;58.20;;;;;;1031773;28;20027;-55
2021/03/20 00:50:21;;;;;;;43.75;18.85;;;18.90;58.20;;;;;;1035808;28;20014;-55
2021/03/20 00:50:51;;;;;;;38.60;18.04;;;18.90;58.70;;;;;;1034756;28;20022;-55
2021/03/20 00:51:25;;;;;;;44.26;18.74;;;18.90;58.10;;;;;;1028827;28;20027;-55
2021/03/20 00:51:56;;;;;;;45.33;17.63;;;18.90;58.20;;;;;;1028278;28;20030;-55
2021/03/20 00:52:26;;;;;;;42.13;17.92;;;18.90;58.20;;;;;;1036540;28;20466;-55
2021/03/20 00:52:57;;;;;;;41.45;18.00;;;18.90;58.20;;;;;;1032687;28;20129;-55
2021/03/20 00:53:28;;;;;;;51.60;19.00;;;18.90;58.10;;;;;;1036534;28;20100;-54
2021/03/20 00:53:59;;;;;;;49.42;19.64;;;18.90;58.20;;;;;;1032334;28;20109;-55
2021/03/20 00:54:30;;;;;;;47.95;18.38;;;18.80;58.10;;;;;;1024735;28;20026;-55
2021/03/20 00:55:00;;;;;;;41.42;18.38;;;18.80;58.10;;;;;;1028499;28;20431;-55
2021/03/20 00:55:31;;;;;;;40.65;18.55;;;18.80;58.10;;;;;;1028309;28;20503;-55
2021/03/20 00:56:02;;;;;;;44.65;18.92;;;18.90;58.20;;;;;;1024840;28;20015;-55
2021/03/20 00:56:33;;;;;;;40.08;18.65;;;18.80;58.10;;;;;;1036830;28;20022;-55
2021/03/20 00:57:03;;;;;;;39.25;17.42;;;18.90;58.20;;;;;;1036603;28;20026;-55
2021/03/20 00:57:34;;;;;;;41.97;18.38;;;18.90;58.20;;;;;;1036751;28;20034;-55
2021/03/20 00:58:31;;;;;;;39.08;17.88;;;18.90;58.20;;;;;;1036375;28;20032;-55
2021/03/20 00:59:01;;;;;;;38.38;18.68;;;18.80;58.10;;;;;;1036099;28;20025;-55
2021/03/20 00:59:32;;;;;;;39.33;18.20;;;18.80;58.10;;;;;;1040089;28;20029;-54
2021/03/20 01:00:06;;;;;;;47.13;18.63;;;18.90;58.20;;;;;;1040701;28;20041;-55
2021/03/20 01:00:37;;;;;;;38.82;17.44;;;18.80;58.10;;;;;;1034391;28;20468;-55
2021/03/20 01:01:15;;;;;;;38.67;17.35;;;18.80;58.20;;;;;;1032349;28;20014;-55
2021/03/20 01:01:46;;;;;;;49.78;19.44;;;18.80;58.10;;;;;;1032357;28;20025;-55
2021/03/20 01:02:16;;;;;;;38.17;17.58;;;18.80;58.20;;;;;;1035097;28;20435;-55
2021/03/20 01:02:47;;;;;;;45.17;17.50;;;18.80;58.20;;;;;;1037736;28;20025;-54
2021/03/20 01:03:18;;;;;;;39.63;17.67;;;18.80;58.20;;;;;;1036290;28;20022;-55
2021/03/20 01:03:49;;;;;;;37.63;18.33;;;18.80;58.20;;;;;;1036356;28;20105;-54
2021/03/20 01:04:20;;;;;;;41.33;18.38;;;18.80;58.20;;;;;;1032735;28;20014;-55
2021/03/20 01:04:50;;;;;;;43.00;17.67;;;18.80;58.20;;;;;;1032667;28;20652;-54
2021/03/20 01:05:21;;;;;;;53.05;18.73;;;18.80;58.30;;;;;;1028267;28;20146;-55
2021/03/20 01:05:52;;;;;;;36.38;16.63;;;18.80;58.20;;;;;;1028312;28;20026;-55
2021/03/20 01:06:25;;;;;;;47.05;18.40;;;18.80;58.20;;;;;;1028705;28;20023;-55
2021/03/20 01:06:55;;;;;;;38.82;17.84;;;18.80;58.20;;;;;;1036073;28;20018;-55
2021/03/20 01:07:26;;;;;;;45.78;17.13;;;18.70;58.80;;;;;;1040414;28;20425;-55
2021/03/20 01:07:57;;;;;;;38.28;16.65;;;18.80;58.20;;;;;;1036426;28;20078;-55
2021/03/20 01:08:27;;;;;;;39.35;16.90;;;18.80;58.20;;;;;;1032340;28;20026;-54
2021/03/20 01:08:58;;;;;;;37.08;16.60;;;18.80;58.20;;;;;;1028159;28;20023;-55
2021/03/20 01:09:30;;;;;;;33.96;17.22;;;18.80;58.20;;;;;;1032298;28;20015;-55
2021/03/20 01:10:02;;;;;;;38.46;17.78;;;18.80;58.20;;;;;;1032474;28;20539;-55
2021/03/20 01:10:33;;;;;;;43.40;17.18;;;18.70;58.20;;;;;;1032311;28;20026;-55
2021/03/20 01:11:04;;;;;;;49.15;17.13;;;18.70;58.20;;;;;;1032423;28;20566;-55
2021/03/20 01:11:35;;;;;;;38.14;16.94;;;18.80;58.20;;;;;;1028397;28;20628;-55
2021/03/20 01:12:06;;;;;;;37.35;17.92;;;18.70;58.20;;;;;;1028251;28;20027;-54
2021/03/20 01:12:37;;;;;;;34.42;16.42;;;18.70;58.20;;;;;;1028772;28;20032;-55
2021/03/20 01:13:07;;;;;;;41.58;17.60;;;18.70;58.20;;;;;;1036725;28;20024;-55
2021/03/20 01:13:38;;;;;;;42.90;17.70;;;18.70;58.20;;;;;;1036308;28;20018;-55
2021/03/20 01:14:09;;;;;;;35.57;16.87;;;18.80;58.20;;;;;;1024274;28;20039;-55
2021/03/20 01:14:39;;;;;;;38.28;17.55;;;18.70;58.20;;;;;;1032448;28;20026;-55
2021/03/20 01:15:11;;;;;;;37.63;17.47;;;18.70;58.20;;;;;;1032382;28;20026;-55
2021/03/20 01:15:42;;;;;;;35.46;16.24;;;18.70;58.10;;;;;;1023897;28;20495;-55
2021/03/20 01:16:12;;;;;;;33.35;16.55;;;18.70;58.10;;;;;;1028383;28;20023;-55
2021/03/20 01:16:43;;;;;;;34.42;15.95;;;18.70;58.10;;;;;;1028344;28;20023;-55
2021/03/20 01:17:13;;;;;;;37.25;16.27;;;18.70;58.10;;;;;;1028162;28;20029;-55
2021/03/20 01:17:44;;;;;;;31.33;15.77;;;18.70;58.20;;;;;;1024374;28;20027;-55
2021/03/20 01:18:15;;;;;;;38.00;17.00;;;18.70;58.20;;;;;;1028430;28;20026;-55
2021/03/20 01:18:46;;;;;;;37.67;16.30;;;18.70;58.20;;;;;;1028650;28;20496;-54
2021/03/20 01:19:16;;;;;;;37.72;15.95;;;18.70;58.20;;;;;;1032471;28;20064;-54
2021/03/20 01:19:47;;;;;;;40.30;17.05;;;18.70;58.20;;;;;;1032601;28;20597;-54
2021/03/20 01:20:18;;;;;;;39.63;16.73;;;18.70;58.20;;;;;;1032287;28;20058;-55
2021/03/20 01:20:48;;;;;;;39.47;16.23;;;18.70;58.20;;;;;;1028459;28;20031;-55
2021/03/20 01:21:20;;;;;;;35.53;16.25;;;18.70;58.20;;;;;;1028440;28;20476;-55
2021/03/20 01:21:51;;;;;;;36.94;16.50;;;18.70;58.20;;;;;;1032419;28;20057;-55
2021/03/20 01:22:21;;;;;;;37.97;16.55;;;18.70;58.20;;;;;;1032479;28;20417;-55
2021/03/20 01:22:52;;;;;;;31.90;15.75;;;18.70;58.20;;;;;;1037085;28;20022;-55
2021/03/20 01:23:23;;;;;;;35.20;15.93;;;18.70;58.20;;;;;;1040507;28;20428;-55
2021/03/20 01:23:53;;;;;;;33.88;16.17;;;18.70;58.20;;;;;;1032332;28;20378;-55
2021/03/20 01:24:24;;;;;;;35.83;16.85;;;18.70;58.70;;;;;;1028213;28;20058;-55
2021/03/20 01:24:55;;;;;;;32.90;15.77;;;18.70;58.20;;;;;;1028476;28;20026;-55
2021/03/20 01:25:26;;;;;;;35.45;15.25;;;18.70;58.10;;;;;;1028915;28;20506;-55
2021/03/20 01:25:56;;;;;;;37.53;17.13;;;18.70;58.10;;;;;;1036265;28;20118;-55
2021/03/20 01:26:27;;;;;;;40.15;17.20;;;18.70;58.10;;;;;;1032494;28;20054;-53
2021/03/20 01:26:58;;;;;;;37.28;15.82;;;18.70;58.10;;;;;;1040559;28;20405;-54
2021/03/20 01:27:28;;;;;;;36.47;16.75;;;18.70;58.20;;;;;;1040501;28;20029;-55
2021/03/20 01:27:59;;;;;;;29.85;15.55;;;18.70;58.10;;;;;;1040717;28;20029;-55
2021/03/20 01:28:31;;;;;;;32.70;16.05;;;18.70;58.10;;;;;;1036116;28;20025;-55
2021/03/20 01:29:02;;;;;;;31.08;14.94;;;18.70;58.10;;;;;;1028408;28;20158;-55
2021/03/20 01:29:32;;;;;;;53.22;16.23;;;18.70;58.10;;;;;;1028651;28;20440;-55
2021/03/20 01:30:08;;;;;;;36.67;16.50;;;18.70;58.10;;;;;;1033118;28;20030;-55
2021/03/20 01:30:41;;;;;;;33.14;15.16;;;18.70;58.10;;;;;;1040399;28;20486;-54
2021/03/20 01:31:12;;;;;;;36.26;15.78;;;18.70;58.70;;;;;;1036241;28;20025;-55
2021/03/20 01:31:43;;;;;;;35.20;16.02;;;18.70;58.10;;;;;;1025448;28;20027;-55
2021/03/20 01:32:13;;;;;;;35.33;15.32;;;18.70;58.10;;;;;;1032403;28;20522;-55
2021/03/20 01:32:44;;;;;;;28.85;15.32;;;18.60;58.10;;;;;;1032093;28;20041;-55
2021/03/20 01:33:15;;;;;;;32.58;15.38;;;18.70;58.10;;;;;;1028285;28;20118;-55
2021/03/20 01:33:45;;;;;;;37.15;16.20;;;18.60;58.00;;;;;;1024536;28;20034;-55
2021/03/20 01:34:16;;;;;;;32.75;16.00;;;18.70;58.10;;;;;;1028620;28;20034;-55
2021/03/20 01:34:47;;;;;;;28.55;15.32;;;18.70;58.10;;;;;;1032296;28;20026;-55
2021/03/20 01:35:18;;;;;;;34.70;15.95;;;18.60;58.00;;;;;;1032579;28;20087;-55
2021/03/20 01:35:48;;;;;;;33.95;15.10;;;18.70;58.10;;;;;;1032197;28;20113;-54
2021/03/20 01:36:19;;;;;;;39.75;16.42;;;18.60;58.10;;;;;;1035925;28;20032;-55
2021/03/20 01:36:50;;;;;;;33.63;15.68;;;18.70;58.10;;;;;;1036404;28;20493;-55
2021/03/20 01:37:20;;;;;;;33.00;15.68;;;18.60;58.00;;;;;;1036588;28;20025;-55
2021/03/20 01:37:51;;;;;;;30.77;15.23;;;18.60;58.00;;;;;;1040349;28;20028;-55
2021/03/20 01:38:22;;;;;;;34.45;15.57;;;18.60;58.10;;;;;;1036415;28;20435;-55
2021/03/20 01:38:53;;;;;;;30.35;15.30;;;18.70;58.70;;;;;;1036347;28;20032;-55
2021/03/20 01:39:23;;;;;;;35.25;15.60;;;18.60;58.10;;;;;;1035783;28;20029;-55
2021/03/20 01:39:54;;;;;;;28.85;15.35;;;18.60;58.10;;;;;;1032582;28;20018;-55
2021/03/20 01:40:28;;;;;;;33.05;15.50;;;18.60;58.10;;;;;;1036373;28;20462;-55
2021/03/20 01:41:04;;;;;;;34.42;15.62;;;18.60;58.60;;;;;;1041035;28;20064;-55
2021/03/20 01:41:34;;;;;;;35.10;15.62;;;18.60;58.10;;;;;;1036252;28;20232;-54
2021/03/20 01:42:06;;;;;;;36.58;14.98;;;18.60;58.00;;;;;;1037675;28;20047;-55
2021/03/20 01:42:41;;;;;;;34.06;14.90;;;18.60;58.00;;;;;;1034945;28;20018;-54
2021/03/20 01:43:17;;;;;;;35.74;15.48;;;18.60;58.10;;;;;;1032155;28;20040;-55
2021/03/20 01:43:48;;;;;;;31.86;14.88;;;18.60;58.10;;;;;;1036438;28;20014;-55
2021/03/20 01:44:21;;;;;;;34.24;15.90;;;18.60;58.70;;;;;;1036442;28;20810;-55
2021/03/20 01:45:15;;;;;;;32.10;14.66;;;18.60;58.10;;;;;;1028069;28;20014;-55
2021/03/20 01:45:45;;;;;;;36.06;14.30;;;18.60;58.10;;;;;;1028109;28;20011;-55
2021/03/20 01:46:37;;;;;;;29.80;14.82;;;18.60;58.10;;;;;;1032288;28;20026;-55
2021/03/20 01:47:12;;;;;;;33.46;14.96;;;18.60;58.10;;;;;;1036391;28;20028;-55
2021/03/20 01:48:07;;;;;;;31.98;14.68;;;18.60;58.10;;;;;;1032432;28;20057;-55
2021/03/20 01:48:38;;;;;;;26.20;14.80;;;18.60;58.10;;;;;;1036202;28;20014;-55
2021/03/20 01:49:17;;;;;;;28.83;14.68;;;18.60;58.70;;;;;;1032258;28;20080;-55
2021/03/20 01:49:48;;;;;;;32.10;14.90;;;18.60;58.70;;;;;;1032271;28;20109;-55
2021/03/20 01:50:51;;;;;;;32.88;15.32;;;18.60;58.10;;;;;;1030130;28;20467;-55
2021/03/20 01:51:21;;;;;;;30.14;14.60;;;18.50;58.10;;;;;;1037106;28;20530;-54
2021/03/20 01:51:59;;;;;;;31.45;14.75;;;18.60;58.70;;;;;;1036094;28;20014;-55
2021/03/20 01:52:31;;;;;;;26.94;14.60;;;18.50;58.00;;;;;;1032352;28;20499;-55
2021/03/20 01:53:13;;;;;;;28.92;14.86;;;18.60;58.10;;;;;;1028403;28;20097;-55
2021/03/20 01:53:46;;;;;;;34.28;14.72;;;18.50;58.10;;;;;;1032103;28;20019;-53
2021/03/20 01:54:16;;;;;;;31.22;14.60;;;18.50;58.10;;;;;;1028272;28;20046;-55
2021/03/20 01:55:05;;;;;;;30.30;15.30;;;18.50;58.10;;;;;;1024285;29;20023;-55
2021/03/20 01:55:36;;;;;;;27.78;14.34;;;18.50;58.20;;;;;;1040058;28;20117;-55
2021/03/20 01:56:10;;;;;;;28.35;13.82;;;18.50;58.70;;;;;;1036382;28;20496;-54
2021/03/20 01:56:43;;;;;;;29.68;14.38;;;18.50;58.20;;;;;;1032325;28;20123;-55
2021/03/20 01:57:17;;;;;;;31.18;14.36;;;18.50;58.20;;;;;;1031157;28;20509;-54
2021/03/20 01:57:53;;;;;;;29.63;14.30;;;18.50;58.20;;;;;;1032187;28;20026;-54
2021/03/20 01:58:52;;;;;;;31.45;13.63;;;18.50;57.70;;;;;;1048094;28;20342;-54
2021/03/20 01:59:23;;;;;;;28.73;14.32;;;18.50;58.20;;;;;;1051876;28;20032;-54
2021/03/20 01:59:54;;;;;;;28.20;14.73;;;18.50;58.20;;;;;;1047854;28;20086;-55
2021/03/20 02:00:24;;;;;;;29.48;14.57;;;18.50;58.20;;;;;;1039391;28;20072;-55
2021/03/20 02:01:18;;;;;;;28.85;14.07;;;18.50;58.20;;;;;;1039592;28;20026;-55
2021/03/20 02:01:48;;;;;;;25.27;13.90;;;18.50;58.20;;;;;;1038624;28;20486;-55
2021/03/20 02:02:19;;;;;;;29.10;14.38;;;18.50;58.20;;;;;;1041863;28;20041;-55
2021/03/20 02:02:50;;;;;;;29.73;14.07;;;18.50;58.80;;;;;;1043694;28;20021;-55
2021/03/20 02:03:21;;;;;;;27.90;14.02;;;18.50;58.20;;;;;;1035642;28;20116;-55
2021/03/20 02:03:52;;;;;;;26.83;13.73;;;18.50;58.20;;;;;;1043610;28;20025;-55
2021/03/20 02:04:23;;;;;;;28.88;13.32;;;18.50;58.30;;;;;;1047486;28;20087;-55
2021/03/20 02:04:54;;;;;;;27.54;13.92;;;18.50;58.80;;;;;;1047762;28;20455;-55
2021/03/20 02:05:28;;;;;;;29.80;13.65;;;18.50;58.20;;;;;;1043899;28;20025;-55
2021/03/20 02:06:01;;;;;;;29.78;14.28;;;18.50;58.20;;;;;;1040152;28;20104;-55
2021/03/20 02:06:32;;;;;;;29.50;14.04;;;18.50;58.20;;;;;;1035445;28;20027;-55
2021/03/20 02:07:03;;;;;;;27.15;14.27;;;18.40;58.20;;;;;;1043469;28;20497;-55
2021/03/20 02:07:33;;;;;;;33.67;14.67;;;18.40;58.20;;;;;;1039481;28;20072;-55
2021/03/20 02:08:05;;;;;;;25.63;14.07;;;18.50;58.20;;;;;;1039547;28;20024;-55
2021/03/20 02:08:37;;;;;;;28.88;13.64;;;18.50;58.20;;;;;;1039823;28;20018;-54
2021/03/20 02:09:08;;;;;;;31.92;13.76;;;18.50;58.80;;;;;;1035811;28;20030;-55
2021/03/20 02:09:39;;;;;;;27.60;13.80;;;18.50;58.20;;;;;;1035495;28;20026;-55
2021/03/20 02:10:10;;;;;;;27.35;13.07;;;18.50;58.20;;;;;;1027304;28;20030;-55
2021/03/20 02:10:42;;;;;;;24.48;13.02;;;18.50;58.20;;;;;;1035346;28;20105;-54
2021/03/20 02:11:35;;;;;;;26.50;14.02;;;18.40;58.10;;;;;;1039503;28;20021;-55
2021/03/20 02:12:28;;;;;;;26.18;13.54;;;18.50;58.20;;;;;;1039293;28;20060;-55
2021/03/20 02:13:06;;;;;;;25.40;13.60;;;18.50;58.20;;;;;;1043585;28;20160;-55
2021/03/20 02:13:40;;;;;;;32.94;13.32;;;18.40;58.20;;;;;;1043598;28;20079;-54
2021/03/20 02:14:43;;;;;;;33.80;14.32;;;18.40;58.10;;;;;;1043357;28;20027;-55
2021/03/20 02:15:30;;;;;;;29.72;13.24;;;18.50;58.20;;;;;;1036083;28;20026;-55
2021/03/20 02:16:08;;;;;;;31.77;13.20;;;18.40;58.20;;;;;;1030179;28;20081;-54
2021/03/20 02:16:47;;;;;;;25.30;14.10;;;18.40;58.20;;;;;;1027240;28;20066;-54
2021/03/20 02:17:27;;;;;;;23.66;13.54;;;18.40;58.20;;;;;;1032379;28;20018;-55
2021/03/20 02:18:05;;;;;;;27.34;13.64;;;18.40;58.20;;;;;;1031369;28;20527;-55
2021/03/20 02:18:46;;;;;;;29.36;13.40;;;18.40;58.20;;;;;;1031294;28;20018;-54
2021/03/20 02:19:31;;;;;;;26.65;12.52;;;18.40;58.30;;;;;;1045978;28;20031;-55
2021/03/20 02:20:28;;;;;;;26.02;13.62;;;18.40;58.30;;;;;;1047775;28;20021;-56
2021/03/20 02:21:07;;;;;;;25.33;13.50;;;18.40;58.20;;;;;;1035571;28;20037;-55
2021/03/20 02:21:43;;;;;;;25.77;12.95;;;18.40;58.30;;;;;;1040234;28;20049;-55
2021/03/20 02:22:24;;;;;;;29.60;12.90;;;18.40;58.30;;;;;;1039393;28;20030;-55
2021/03/20 02:23:10;;;;;;;;;;;18.40;58.30;;;;;;1039964;28;20021;-56
2021/03/20 02:24:18;;;;;;;24.85;13.20;;;18.40;58.30;;;;;;1039563;28;20003;-55
2021/03/20 02:25:10;;;;;;;29.42;13.68;;;18.40;58.30;;;;;;1042435;28;20021;-55
2021/03/20 02:26:18;;;;;;;29.90;12.93;;;18.30;58.20;;;;;;1043355;28;20369;-55
2021/03/20 02:27:03;;;;;;;28.95;14.00;;;18.30;58.30;;;;;;1043427;28;20470;-55
2021/03/20 02:28:03;;;;;;;24.33;12.88;;;18.30;58.30;;;;;;1045098;28;20074;-55
2021/03/20 02:29:08;;;;;;;27.05;13.18;;;18.30;58.40;;;;;;1043252;28;20099;-55
2021/03/20 02:30:10;;;;;;;21.30;12.90;;;18.30;58.40;;;;;;1047750;28;20024;-55
2021/03/20 02:31:18;;;;;;;26.83;13.10;;;18.30;58.40;;;;;;1043646;28;20024;-55
2021/03/20 02:32:13;;;;;;;23.15;12.75;;;18.30;59.00;;;;;;1039271;28;20053;-55
2021/03/20 02:33:08;;;;;;;25.52;12.68;;;18.30;58.50;;;;;;1043251;28;20167;-55
2021/03/20 02:33:48;;;;;;;26.98;11.77;;;18.20;58.50;;;;;;1039491;28;20441;-54
2021/03/20 02:34:24;;;;;;;25.55;12.88;;;18.20;58.50;;;;;;1041060;28;20018;-55
2021/03/20 02:35:04;;;;;;;27.35;12.93;;;18.20;58.50;;;;;;1043379;28;20072;-56
2021/03/20 02:35:40;;;;;;;25.70;13.20;;;18.20;59.10;;;;;;1042712;28;20025;-55
2021/03/20 02:36:32;;;;;;;24.55;13.05;;;18.20;58.50;;;;;;1043326;28;20032;-55
2021/03/20 02:37:06;;;;;;;21.40;12.13;;;18.20;58.50;;;;;;1047576;28;20024;-55
2021/03/20 02:38:05;;;;;;;23.73;13.50;;;18.20;58.60;;;;;;1051662;28;20012;-55
2021/03/20 02:38:53;;;;;;;26.68;13.56;;;18.20;59.20;;;;;;1039397;28;20465;-55
2021/03/20 02:40:05;;;;;;;24.95;12.85;;;18.20;58.60;;;;;;1037201;28;20022;-55
2021/03/20 02:40:43;;;;;;;;;;;18.20;59.20;;;;;;1043861;28;20375;-55
2021/03/20 02:41:36;;;;;;;22.50;11.75;;;18.20;58.60;;;;;;1045805;28;19940;-55
2021/03/20 02:42:20;;;;;;;20.72;12.22;;;18.20;58.50;;;;;;1032355;28;20077;-55
2021/03/20 02:42:59;;;;;;;25.27;12.55;;;18.20;58.50;;;;;;1032218;28;20026;-55
2021/03/20 02:43:44;;;;;;;23.77;12.38;;;18.20;58.50;;;;;;1035395;28;20034;-55
2021/03/20 02:44:40;;;;;;;23.04;11.82;;;18.20;58.60;;;;;;1043684;28;20013;-55
2021/03/20 02:45:22;;;;;;;19.00;11.50;;;18.20;59.20;;;;;;1045040;28;20017;-55
2021/03/20 02:46:40;;;;;;;25.92;12.30;;;18.20;58.60;;;;;;1043418;28;20045;-55
2021/03/20 02:47:11;;;;;;;25.45;12.10;;;18.20;58.60;;;;;;1046271;28;20064;-55
2021/03/20 02:48:04;;;;;;;24.83;12.07;;;18.20;58.60;;;;;;1045773;28;20052;-55
2021/03/20 02:48:51;;;;;;;24.20;12.45;;;18.20;58.60;;;;;;1044510;28;20097;-54
2021/03/20 02:49:48;;;;;;;21.48;12.73;;;18.10;58.50;;;;;;1039255;28;20490;-55
2021/03/20 02:50:21;;;;;;;27.60;12.40;;;18.20;58.60;;;;;;1035125;28;20069;-55
2021/03/20 02:51:02;;;;;;;23.27;11.77;;;18.20;58.60;;;;;;1031321;28;20019;-55
2021/03/20 02:51:41;;;;;;;26.38;12.68;;;18.20;58.60;;;;;;1035210;28;20483;-55
2021/03/20 02:52:18;;;;;;;23.52;11.06;;;18.20;58.60;;;;;;1035306;28;20057;-55
2021/03/20 02:52:58;;;;;;;27.33;13.15;;;18.20;58.60;;;;;;1043484;28;20025;-55
2021/03/20 02:53:41;;;;;;;19.45;11.63;;;18.20;58.60;;;;;;1043201;28;20020;-55
2021/03/20 02:54:20;;;;;;;23.73;11.38;;;18.20;59.20;;;;;;1039287;28;20033;-55
2021/03/20 02:55:11;;;;;;;22.10;11.00;;;18.20;58.60;;;;;;1035331;28;20505;-54
2021/03/20 02:55:49;;;;;;;18.85;11.02;;;18.20;58.60;;;;;;1044303;28;20375;-55
2021/03/20 02:56:24;;;;;;;26.58;12.38;;;18.20;58.60;;;;;;1043427;28;20017;-55
2021/03/20 02:56:59;;;;;;;23.25;11.05;;;18.10;58.60;;;;;;1039167;28;20060;-55
2021/03/20 02:58:00;;;;;;;24.95;11.77;;;18.20;58.60;;;;;;1031154;28;20301;-55
2021/03/20 02:58:37;;;;;;;19.75;11.18;;;18.10;58.50;;;;;;1034221;28;20054;-55